createdAt,value
2018-03-06T00:00:22.692Z,65.06
2018-03-06T00:02:16.040Z,64.30
2018-03-06T00:03:15.993Z,63.92
2018-03-06T00:05:09.361Z,63.92
2018-03-06T00:06:09.324Z,64.30
2018-03-06T00:08:02.670Z,63.92
2018-03-06T00:09:02.621Z,64.17
2018-03-06T00:10:58.483Z,64.08
2018-03-06T00:11:58.436Z,64.27
2018-03-06T00:13:51.781Z,64.11
2018-03-06T00:14:51.736Z,64.97
2018-03-06T00:16:45.963Z,64.30
2018-03-06T00:17:45.921Z,63.82
2018-03-06T00:19:39.298Z,63.54
2018-03-06T00:20:39.296Z,64.01
2018-03-06T00:22:35.150Z,64.30
2018-03-06T00:23:35.107Z,64.08
2018-03-06T00:25:28.504Z,64.46
2018-03-06T00:26:28.455Z,63.98
2018-03-06T00:28:21.802Z,64.46
2018-03-06T00:29:21.764Z,64.27
2018-03-06T00:31:17.608Z,65.22
2018-03-06T00:32:17.565Z,64.74
2018-03-06T00:34:13.436Z,65.31
2018-03-06T00:35:13.394Z,65.78
2018-03-06T00:37:08.622Z,65.31
2018-03-06T00:38:08.582Z,65.59
2018-03-06T00:40:01.935Z,65.12
2018-03-06T00:41:01.892Z,65.06
2018-03-06T00:42:55.255Z,64.36
2018-03-06T00:43:55.210Z,63.79
2018-03-06T00:45:48.563Z,64.27
2018-03-06T00:46:48.518Z,64.46
2018-03-06T00:48:41.870Z,64.93
2018-03-06T00:49:41.830Z,64.55
2018-03-06T00:51:35.189Z,64.74
2018-03-06T00:52:35.136Z,64.55
2018-03-06T00:54:28.490Z,64.93
2018-03-06T00:55:28.447Z,65.69
2018-03-06T00:57:21.804Z,65.31
2018-03-06T00:58:21.766Z,65.31
2018-03-06T01:00:15.116Z,65.41
2018-03-06T01:01:15.074Z,65.69
2018-03-06T01:03:08.435Z,66.03
2018-03-06T01:04:08.389Z,66.32
2018-03-06T01:06:01.787Z,66.13
2018-03-06T01:07:01.738Z,66.51
2018-03-06T01:08:55.121Z,66.13
2018-03-06T01:09:55.082Z,65.94
2018-03-06T01:11:50.938Z,66.13
2018-03-06T01:12:50.903Z,65.84
2018-03-06T01:14:46.745Z,66.03
2018-03-06T01:15:46.706Z,66.03
2018-03-06T01:17:40.059Z,66.13
2018-03-06T01:18:40.029Z,66.22
2018-03-06T01:20:33.367Z,66.41
2018-03-06T01:21:33.328Z,66.80
2018-03-06T01:23:26.677Z,66.99
2018-03-06T01:24:26.638Z,66.80
2018-03-06T01:26:19.997Z,66.89
2018-03-06T01:27:19.947Z,66.32
2018-03-06T01:29:15.810Z,66.60
2018-03-06T01:30:15.760Z,66.51
2018-03-06T01:32:09.138Z,66.22
2018-03-06T01:33:09.072Z,66.13
2018-03-06T01:35:02.474Z,66.80
2018-03-06T01:36:02.390Z,66.80
2018-03-06T01:37:02.365Z,66.70
2018-03-06T01:38:02.342Z,66.60
2018-03-06T01:39:02.320Z,66.89
2018-03-06T01:40:02.289Z,66.89
2018-03-06T01:41:02.259Z,66.60
2018-03-06T01:42:02.237Z,66.80
2018-03-06T01:43:02.209Z,66.80
2018-03-06T01:44:02.189Z,66.99
2018-03-06T01:45:02.155Z,66.51
2018-03-06T01:46:02.137Z,66.80
2018-03-06T01:47:02.104Z,66.99
2018-03-06T01:48:02.086Z,66.70
2018-03-06T01:49:02.054Z,66.41
2018-03-06T01:50:02.028Z,66.51
2018-03-06T01:51:02.008Z,67.08
2018-03-06T01:52:01.976Z,66.80
2018-03-06T01:53:01.954Z,66.99
2018-03-06T01:54:01.926Z,66.99
2018-03-06T01:55:01.900Z,67.27
2018-03-06T01:56:01.873Z,67.27
2018-03-06T01:57:01.848Z,67.08
2018-03-06T01:58:01.824Z,67.08
2018-03-06T01:59:01.796Z,66.70
2018-03-06T02:00:01.824Z,67.18
2018-03-06T02:01:01.746Z,67.08
2018-03-06T02:02:01.725Z,67.27
2018-03-06T02:03:01.692Z,67.36
2018-03-06T02:04:01.668Z,67.18
2018-03-06T02:05:01.642Z,67.36
2018-03-06T02:06:01.615Z,67.55
2018-03-06T02:07:01.634Z,67.93
2018-03-06T02:08:01.563Z,68.21
2018-03-06T02:09:01.534Z,67.74
2018-03-06T02:10:01.516Z,68.40
2018-03-06T02:11:01.484Z,68.12
2018-03-06T02:12:01.459Z,68.02
2018-03-06T02:13:01.434Z,68.12
2018-03-06T02:14:01.405Z,68.21
2018-03-06T02:15:01.379Z,67.65
2018-03-06T02:16:01.354Z,67.55
2018-03-06T02:17:01.333Z,67.08
2018-03-06T02:18:01.301Z,67.55
2018-03-06T02:19:01.280Z,66.89
2018-03-06T02:20:01.253Z,67.46
2018-03-06T02:21:01.232Z,67.08
2018-03-06T02:22:01.198Z,67.52
2018-03-06T02:23:01.176Z,67.93
2018-03-06T02:24:01.148Z,68.08
2018-03-06T02:25:01.120Z,67.80
2018-03-06T02:26:01.095Z,67.61
2018-03-06T02:27:01.070Z,67.43
2018-03-06T02:28:01.044Z,67.24
2018-03-06T02:29:01.018Z,67.52
2018-03-06T02:30:00.992Z,67.36
2018-03-06T02:31:00.963Z,67.33
2018-03-06T02:32:00.940Z,67.24
2018-03-06T02:33:00.913Z,67.71
2018-03-06T02:34:00.884Z,68.27
2018-03-06T02:35:00.861Z,67.61
2018-03-06T02:36:00.836Z,67.71
2018-03-06T02:37:00.809Z,68.08
2018-03-06T02:38:00.782Z,67.61
2018-03-06T02:39:00.757Z,68.08
2018-03-06T02:40:00.728Z,67.99
2018-03-06T02:41:00.709Z,67.99
2018-03-06T02:42:00.676Z,68.27
2018-03-06T02:43:00.702Z,68.18
2018-03-06T02:44:00.625Z,68.56
2018-03-06T02:45:00.599Z,68.46
2018-03-06T02:46:00.573Z,68.65
2018-03-06T02:47:00.548Z,68.65
2018-03-06T02:48:00.522Z,68.37
2018-03-06T02:49:00.503Z,68.37
2018-03-06T02:50:00.472Z,68.56
2018-03-06T02:51:00.445Z,68.84
2018-03-06T02:52:00.416Z,68.56
2018-03-06T02:53:00.393Z,68.56
2018-03-06T02:54:00.364Z,68.27
2018-03-06T02:55:00.337Z,68.27
2018-03-06T02:56:00.314Z,68.65
2018-03-06T02:57:00.293Z,68.65
2018-03-06T02:58:00.260Z,68.46
2018-03-06T02:59:00.233Z,68.37
2018-03-06T03:00:00.208Z,69.03
2018-03-06T03:01:00.185Z,68.56
2018-03-06T03:02:00.164Z,69.03
2018-03-06T03:03:00.134Z,68.75
2018-03-06T03:04:00.105Z,69.03
2018-03-06T03:06:34.800Z,69.89
2018-03-06T03:07:34.761Z,69.51
2018-03-06T03:09:30.682Z,69.79
2018-03-06T03:10:30.615Z,69.70
2018-03-06T03:12:23.967Z,69.89
2018-03-06T03:13:23.927Z,69.66
2018-03-06T03:15:17.280Z,70.26
2018-03-06T03:16:17.237Z,70.26
2018-03-06T03:18:10.589Z,70.26
2018-03-06T03:19:10.542Z,70.26
2018-03-06T03:21:06.390Z,70.17
2018-03-06T03:22:06.351Z,70.17
2018-03-06T03:23:59.730Z,69.98
2018-03-06T03:24:59.685Z,69.70
2018-03-06T03:26:53.030Z,69.70
2018-03-06T03:27:52.989Z,70.07
2018-03-06T03:29:48.850Z,69.98
2018-03-06T03:30:48.832Z,71.21
2018-03-06T03:32:43.175Z,70.93
2018-03-06T03:33:43.128Z,70.89
2018-03-06T03:35:36.484Z,71.08
2018-03-06T03:36:36.440Z,70.79
2018-03-06T03:38:29.854Z,70.79
2018-03-06T03:39:29.756Z,70.83
2018-03-06T03:41:23.107Z,70.07
2018-03-06T03:42:23.111Z,70.74
2018-03-06T03:44:16.419Z,70.17
2018-03-06T03:45:16.377Z,70.17
2018-03-06T03:47:12.251Z,70.14
2018-03-06T03:48:12.192Z,70.45
2018-03-06T03:50:05.553Z,70.64
2018-03-06T03:51:05.508Z,70.42
2018-03-06T03:53:01.371Z,70.32
2018-03-06T03:54:01.318Z,70.32
2018-03-06T03:55:54.671Z,70.14
2018-03-06T03:56:54.642Z,70.51
2018-03-06T03:58:47.994Z,70.61
2018-03-06T03:59:47.952Z,70.61
2018-03-06T04:01:41.355Z,69.85
2018-03-06T04:02:41.301Z,69.95
2018-03-06T04:04:34.658Z,71.17
2018-03-06T04:05:34.615Z,70.70
2018-03-06T04:07:30.470Z,70.61
2018-03-06T04:08:30.427Z,70.79
2018-03-06T04:10:23.780Z,70.61
2018-03-06T04:11:23.737Z,70.79
2018-03-06T04:13:17.084Z,70.70
2018-03-06T04:14:17.039Z,71.27
2018-03-06T04:16:12.975Z,71.17
2018-03-06T04:17:12.885Z,71.27
2018-03-06T04:19:06.264Z,71.46
2018-03-06T04:20:06.223Z,70.61
2018-03-06T04:21:59.571Z,71.27
2018-03-06T04:22:59.527Z,71.17
2018-03-06T04:24:52.883Z,70.98
2018-03-06T04:25:52.835Z,71.46
2018-03-06T04:27:46.193Z,71.74
2018-03-06T04:28:46.145Z,71.84
2018-03-06T04:30:42.090Z,71.93
2018-03-06T04:31:42.024Z,72.12
2018-03-06T04:33:35.335Z,72.97
2018-03-06T04:34:35.292Z,73.07
2018-03-06T04:36:31.153Z,73.16
2018-03-06T04:37:31.110Z,72.78
2018-03-06T04:39:24.463Z,72.88
2018-03-06T04:40:24.417Z,72.60
2018-03-06T04:42:20.288Z,72.60
2018-03-06T04:43:20.246Z,72.78
2018-03-06T04:45:16.285Z,72.41
2018-03-06T04:46:16.282Z,71.93
2018-03-06T04:48:09.652Z,72.41
2018-03-06T04:49:09.574Z,71.93
2018-03-06T04:51:05.433Z,71.46
2018-03-06T04:52:05.399Z,71.84
2018-03-06T04:53:58.758Z,71.84
2018-03-06T04:54:58.703Z,71.46
2018-03-06T04:56:54.566Z,71.55
2018-03-06T04:57:54.522Z,72.12
2018-03-06T04:59:47.878Z,71.74
2018-03-06T05:00:47.834Z,71.84
2018-03-06T05:02:43.708Z,71.74
2018-03-06T05:03:43.650Z,71.65
2018-03-06T05:05:37.009Z,71.84
2018-03-06T05:06:36.962Z,71.65
2018-03-06T05:08:33.658Z,71.65
2018-03-06T05:09:33.681Z,71.46
2018-03-06T05:11:29.493Z,72.12
2018-03-06T05:12:29.454Z,72.12
2018-03-06T05:14:22.814Z,71.93
2018-03-06T05:15:22.770Z,71.93
2018-03-06T05:17:18.631Z,71.93
2018-03-06T05:18:18.587Z,72.12
2018-03-06T05:20:14.463Z,72.50
2018-03-06T05:21:14.417Z,72.22
2018-03-06T05:23:07.768Z,72.41
2018-03-06T05:24:07.723Z,72.50
2018-03-06T05:25:07.696Z,71.93
2018-03-06T05:26:07.667Z,71.93
2018-03-06T05:27:07.640Z,72.12
2018-03-06T05:28:07.614Z,71.27
2018-03-06T05:29:07.591Z,71.74
2018-03-06T05:30:07.563Z,71.27
2018-03-06T05:31:07.535Z,71.93
2018-03-06T05:32:07.509Z,71.93
2018-03-06T05:33:07.485Z,71.65
2018-03-06T05:34:07.453Z,71.55
2018-03-06T05:35:07.426Z,71.55
2018-03-06T05:36:07.400Z,72.12
2018-03-06T05:37:07.375Z,72.03
2018-03-06T05:38:07.343Z,72.12
2018-03-06T05:39:07.319Z,72.12
2018-03-06T05:40:07.298Z,71.74
2018-03-06T05:41:07.272Z,72.12
2018-03-06T05:42:07.242Z,72.12
2018-03-06T05:43:07.212Z,72.12
2018-03-06T05:44:07.188Z,72.12
2018-03-06T05:45:07.159Z,71.65
2018-03-06T05:46:07.138Z,71.65
2018-03-06T05:47:07.104Z,71.65
2018-03-06T05:48:07.080Z,71.65
2018-03-06T05:49:07.054Z,71.36
2018-03-06T05:50:07.034Z,71.36
2018-03-06T05:51:07.000Z,70.98
2018-03-06T05:52:07.065Z,71.36
2018-03-06T05:53:06.964Z,71.17
2018-03-06T05:54:06.919Z,71.27
2018-03-06T05:55:06.894Z,71.17
2018-03-06T05:56:06.866Z,71.36
2018-03-06T05:57:06.842Z,71.65
2018-03-06T05:58:06.812Z,71.55
2018-03-06T05:59:06.784Z,72.12
2018-03-06T06:00:06.759Z,71.74
2018-03-06T06:01:06.735Z,71.74
2018-03-06T06:02:06.707Z,71.46
2018-03-06T06:03:06.816Z,71.55
2018-03-06T06:04:06.652Z,71.46
2018-03-06T06:05:06.626Z,71.74
2018-03-06T06:06:06.599Z,72.03
2018-03-06T06:07:06.570Z,72.12
2018-03-06T06:08:06.543Z,72.03
2018-03-06T06:09:06.525Z,72.31
2018-03-06T06:10:06.491Z,72.22
2018-03-06T06:11:06.465Z,72.22
2018-03-06T06:12:06.441Z,72.03
2018-03-06T06:13:06.410Z,72.03
2018-03-06T06:14:06.383Z,72.22
2018-03-06T06:15:06.388Z,72.03
2018-03-06T06:16:06.345Z,72.22
2018-03-06T06:17:06.354Z,72.31
2018-03-06T06:18:06.278Z,72.03
2018-03-06T06:19:06.246Z,72.22
2018-03-06T06:20:06.221Z,72.12
2018-03-06T06:21:06.197Z,72.41
2018-03-06T06:22:06.175Z,72.22
2018-03-06T06:23:12.833Z,72.22
2018-03-06T06:24:06.117Z,72.41
2018-03-06T06:25:06.086Z,72.31
2018-03-06T06:26:06.061Z,72.60
2018-03-06T06:27:06.034Z,72.31
2018-03-06T06:28:06.005Z,72.22
2018-03-06T06:29:05.979Z,72.31
2018-03-06T06:30:05.962Z,72.22
2018-03-06T06:31:05.926Z,72.22
2018-03-06T06:32:05.901Z,72.31
2018-03-06T06:33:05.881Z,72.03
2018-03-06T06:34:05.849Z,72.12
2018-03-06T06:35:05.820Z,72.31
2018-03-06T06:36:05.821Z,72.22
2018-03-06T06:37:05.768Z,72.60
2018-03-06T06:38:05.739Z,72.41
2018-03-06T06:39:05.714Z,71.93
2018-03-06T06:40:05.689Z,72.31
2018-03-06T06:41:05.660Z,72.41
2018-03-06T06:42:05.637Z,72.03
2018-03-06T06:43:05.608Z,72.22
2018-03-06T06:44:05.579Z,72.03
2018-03-06T06:45:05.554Z,71.93
2018-03-06T06:46:05.531Z,71.84
2018-03-06T06:47:05.501Z,71.93
2018-03-06T06:48:05.477Z,72.03
2018-03-06T06:49:05.448Z,72.03
2018-03-06T06:50:05.449Z,71.84
2018-03-06T06:51:05.450Z,71.65
2018-03-06T06:52:05.365Z,71.46
2018-03-06T06:53:05.343Z,71.84
2018-03-06T06:54:05.313Z,71.65
2018-03-06T06:55:05.286Z,71.27
2018-03-06T06:56:05.257Z,71.74
2018-03-06T06:57:05.234Z,71.93
2018-03-06T06:58:05.209Z,71.93
2018-03-06T06:59:05.176Z,72.03
2018-03-06T07:00:05.155Z,72.78
2018-03-06T07:01:05.132Z,72.60
2018-03-06T07:02:05.099Z,72.88
2018-03-06T07:03:05.074Z,72.69
2018-03-06T07:04:05.049Z,73.26
2018-03-06T07:05:05.016Z,73.45
2018-03-06T07:06:04.991Z,72.97
2018-03-06T07:07:04.964Z,73.07
2018-03-06T07:08:04.937Z,73.07
2018-03-06T07:09:04.910Z,73.16
2018-03-06T07:10:04.885Z,72.60
2018-03-06T07:11:04.856Z,72.22
2018-03-06T07:12:04.835Z,72.34
2018-03-06T07:13:04.806Z,71.97
2018-03-06T07:14:04.780Z,71.69
2018-03-06T07:15:04.749Z,71.31
2018-03-06T07:16:04.723Z,70.93
2018-03-06T07:17:04.700Z,71.02
2018-03-06T07:18:04.674Z,71.12
2018-03-06T07:19:04.644Z,71.02
2018-03-06T07:20:04.619Z,71.21
2018-03-06T07:21:04.588Z,71.36
2018-03-06T07:22:04.589Z,71.31
2018-03-06T07:23:04.540Z,71.21
2018-03-06T07:25:36.612Z,71.46
2018-03-06T07:26:36.557Z,71.12
2018-03-06T07:28:32.449Z,71.50
2018-03-06T07:29:32.405Z,71.40
2018-03-06T07:31:28.267Z,71.40
2018-03-06T07:32:28.224Z,70.74
2018-03-06T07:34:24.098Z,71.12
2018-03-06T07:35:24.062Z,71.12
2018-03-06T07:37:17.409Z,70.83
2018-03-06T07:38:17.358Z,71.12
2018-03-06T07:40:13.228Z,70.93
2018-03-06T07:41:13.180Z,71.21
2018-03-06T07:43:07.090Z,71.21
2018-03-06T07:44:06.497Z,70.83
2018-03-06T07:45:59.878Z,70.74
2018-03-06T07:46:59.835Z,71.50
2018-03-06T07:48:53.337Z,71.21
2018-03-06T07:49:53.279Z,71.69
2018-03-06T07:51:46.656Z,71.78
2018-03-06T07:52:46.640Z,71.78
2018-03-06T07:54:42.449Z,71.88
2018-03-06T07:55:42.411Z,71.78
2018-03-06T07:57:35.756Z,71.88
2018-03-06T07:58:35.710Z,71.59
2018-03-06T08:00:31.642Z,71.59
2018-03-06T08:01:31.548Z,71.78
2018-03-06T08:03:24.913Z,71.59
2018-03-06T08:04:24.866Z,71.69
2018-03-06T08:06:20.721Z,71.40
2018-03-06T08:07:20.680Z,71.69
2018-03-06T08:09:16.611Z,72.53
2018-03-06T08:10:16.560Z,72.06
2018-03-06T08:12:09.934Z,72.16
2018-03-06T08:13:09.891Z,72.25
2018-03-06T08:15:03.242Z,72.16
2018-03-06T08:16:03.198Z,72.16
2018-03-06T08:17:59.062Z,72.29
2018-03-06T08:18:59.021Z,72.44
2018-03-06T08:20:52.370Z,73.01
2018-03-06T08:21:52.329Z,72.48
2018-03-06T08:23:45.718Z,72.29
2018-03-06T08:24:45.637Z,72.19
2018-03-06T08:26:38.982Z,72.38
2018-03-06T08:27:38.941Z,72.48
2018-03-06T08:29:34.802Z,72.38
2018-03-06T08:30:34.763Z,72.48
2018-03-06T08:32:30.627Z,72.19
2018-03-06T08:33:30.579Z,72.00
2018-03-06T08:35:23.943Z,72.57
2018-03-06T08:36:23.889Z,72.38
2018-03-06T08:38:17.239Z,71.62
2018-03-06T08:39:17.200Z,71.91
2018-03-06T08:41:10.547Z,71.72
2018-03-06T08:42:10.500Z,71.91
2018-03-06T08:44:06.361Z,72.00
2018-03-06T08:45:06.327Z,71.62
2018-03-06T08:47:02.198Z,71.81
2018-03-06T08:48:02.142Z,71.72
2018-03-06T08:49:55.498Z,71.53
2018-03-06T08:50:55.456Z,71.72
2018-03-06T08:52:48.873Z,71.81
2018-03-06T08:53:48.812Z,71.44
2018-03-06T08:55:42.128Z,71.72
2018-03-06T08:56:42.090Z,71.72
2018-03-06T08:58:37.966Z,72.57
2018-03-06T08:59:37.914Z,71.91
2018-03-06T09:00:37.898Z,72.29
2018-03-06T09:01:37.865Z,72.00
2018-03-06T09:02:37.838Z,71.34
2018-03-06T09:03:37.866Z,71.91
2018-03-06T09:04:37.789Z,71.81
2018-03-06T09:05:37.760Z,72.23
2018-03-06T09:06:37.734Z,72.23
2018-03-06T09:07:37.711Z,72.38
2018-03-06T09:08:37.684Z,72.33
2018-03-06T09:09:37.657Z,72.23
2018-03-06T09:10:37.629Z,71.72
2018-03-06T09:11:37.605Z,71.76
2018-03-06T09:12:37.577Z,71.95
2018-03-06T09:13:37.550Z,71.28
2018-03-06T09:14:37.535Z,71.25
2018-03-06T09:15:37.509Z,70.90
2018-03-06T09:16:37.476Z,71.19
2018-03-06T09:17:37.450Z,71.57
2018-03-06T09:18:37.422Z,71.76
2018-03-06T09:19:37.401Z,72.14
2018-03-06T09:20:37.369Z,72.04
2018-03-06T09:21:37.342Z,72.33
2018-03-06T09:22:37.319Z,72.23
2018-03-06T09:23:37.295Z,71.95
2018-03-06T09:24:37.273Z,72.33
2018-03-06T09:25:37.240Z,72.42
2018-03-06T09:26:37.213Z,72.23
2018-03-06T09:27:37.191Z,72.52
2018-03-06T09:28:37.164Z,72.61
2018-03-06T09:29:37.138Z,72.42
2018-03-06T09:30:37.113Z,72.52
2018-03-06T09:31:37.090Z,72.42
2018-03-06T09:32:37.060Z,72.23
2018-03-06T09:33:37.037Z,72.89
2018-03-06T09:34:37.008Z,72.71
2018-03-06T09:35:36.980Z,72.71
2018-03-06T09:36:37.006Z,72.23
2018-03-06T09:37:36.928Z,72.33
2018-03-06T09:38:36.946Z,72.14
2018-03-06T09:39:36.882Z,72.04
2018-03-06T09:40:36.857Z,72.14
2018-03-06T09:41:36.833Z,72.04
2018-03-06T09:42:36.802Z,72.14
2018-03-06T09:43:36.777Z,72.04
2018-03-06T09:44:36.750Z,71.95
2018-03-06T09:45:36.723Z,72.04
2018-03-06T09:46:36.698Z,72.33
2018-03-06T09:47:36.675Z,71.76
2018-03-06T09:48:36.652Z,72.33
2018-03-06T09:49:36.623Z,71.85
2018-03-06T09:50:36.594Z,71.76
2018-03-06T09:51:36.577Z,71.85
2018-03-06T09:52:36.542Z,71.76
2018-03-06T09:53:36.516Z,71.76
2018-03-06T09:54:36.489Z,71.66
2018-03-06T09:55:36.468Z,71.85
2018-03-06T09:56:36.440Z,71.09
2018-03-06T09:57:36.420Z,71.47
2018-03-06T09:58:36.390Z,71.00
2018-03-06T09:59:36.362Z,71.28
2018-03-06T10:00:36.340Z,71.00
2018-03-06T10:01:36.311Z,71.09
2018-03-06T10:02:36.284Z,70.72
2018-03-06T10:03:36.268Z,70.53
2018-03-06T10:04:36.233Z,70.34
2018-03-06T10:05:36.206Z,70.15
2018-03-06T10:06:36.181Z,71.09
2018-03-06T10:07:36.158Z,71.00
2018-03-06T10:08:36.145Z,70.65
2018-03-06T10:09:36.104Z,70.37
2018-03-06T10:10:36.077Z,70.18
2018-03-06T10:11:36.054Z,71.32
2018-03-06T10:12:36.029Z,71.03
2018-03-06T10:13:36.052Z,71.41
2018-03-06T10:14:35.977Z,71.13
2018-03-06T10:15:35.949Z,70.94
2018-03-06T10:16:35.931Z,70.28
2018-03-06T10:17:35.904Z,70.28
2018-03-06T10:18:35.875Z,70.56
2018-03-06T10:19:35.850Z,69.99
2018-03-06T10:20:35.823Z,70.37
2018-03-06T10:21:35.793Z,70.09
2018-03-06T10:22:35.769Z,70.28
2018-03-06T10:23:35.746Z,70.09
2018-03-06T10:24:35.720Z,69.90
2018-03-06T10:25:35.702Z,69.80
2018-03-06T10:26:35.666Z,69.99
2018-03-06T10:27:35.641Z,69.80
2018-03-06T10:30:07.818Z,70.18
2018-03-06T10:31:07.778Z,69.71
2018-03-06T10:33:01.160Z,69.90
2018-03-06T10:34:01.114Z,69.90
2018-03-06T10:35:55.337Z,69.61
2018-03-06T10:36:55.296Z,69.33
2018-03-06T10:38:48.665Z,69.23
2018-03-06T10:39:48.620Z,69.33
2018-03-06T10:41:41.983Z,69.23
2018-03-06T10:42:41.940Z,69.13
2018-03-06T10:44:35.293Z,69.42
2018-03-06T10:45:35.252Z,68.95
2018-03-06T10:47:28.603Z,69.04
2018-03-06T10:48:28.560Z,69.42
2018-03-06T10:50:21.911Z,69.33
2018-03-06T10:51:21.868Z,69.23
2018-03-06T10:52:21.841Z,69.04
2018-03-06T10:53:21.816Z,69.42
2018-03-06T10:54:21.791Z,69.42
2018-03-06T10:55:21.768Z,69.42
2018-03-06T10:56:21.739Z,69.42
2018-03-06T10:57:21.714Z,69.42
2018-03-06T10:58:21.695Z,69.13
2018-03-06T10:59:21.668Z,69.23
2018-03-06T11:00:21.639Z,69.42
2018-03-06T11:01:21.614Z,69.33
2018-03-06T11:02:21.593Z,69.33
2018-03-06T11:03:21.562Z,69.52
2018-03-06T11:04:21.543Z,68.95
2018-03-06T11:05:21.512Z,69.13
2018-03-06T11:06:21.485Z,69.52
2018-03-06T11:07:21.460Z,69.04
2018-03-06T11:08:21.435Z,69.42
2018-03-06T11:09:21.409Z,68.76
2018-03-06T11:10:21.383Z,68.95
2018-03-06T11:11:21.365Z,68.85
2018-03-06T11:12:21.337Z,68.95
2018-03-06T11:13:21.310Z,68.76
2018-03-06T11:14:21.334Z,69.23
2018-03-06T11:15:21.258Z,68.95
2018-03-06T11:16:21.233Z,68.95
2018-03-06T11:17:21.243Z,68.57
2018-03-06T11:18:21.233Z,68.38
2018-03-06T11:19:21.156Z,68.66
2018-03-06T11:20:21.130Z,68.76
2018-03-06T11:21:21.108Z,68.38
2018-03-06T11:22:21.078Z,68.48
2018-03-06T11:23:21.056Z,68.51
2018-03-06T11:24:21.029Z,68.60
2018-03-06T11:25:21.006Z,68.51
2018-03-06T11:26:20.983Z,68.66
2018-03-06T11:27:20.952Z,68.57
2018-03-06T11:28:20.929Z,68.10
2018-03-06T11:29:20.904Z,68.19
2018-03-06T11:30:20.877Z,68.04
2018-03-06T11:31:20.854Z,68.10
2018-03-06T11:32:20.834Z,68.32
2018-03-06T11:33:20.802Z,68.04
2018-03-06T11:34:20.777Z,68.23
2018-03-06T11:35:20.750Z,68.23
2018-03-06T11:36:20.727Z,68.13
2018-03-06T11:37:20.703Z,67.85
2018-03-06T11:38:20.675Z,68.23
2018-03-06T11:39:20.650Z,67.75
2018-03-06T11:40:20.632Z,68.23
2018-03-06T11:41:20.602Z,68.23
2018-03-06T11:42:20.609Z,68.23
2018-03-06T11:43:20.550Z,68.41
2018-03-06T11:44:20.525Z,67.65
2018-03-06T11:45:20.499Z,67.94
2018-03-06T11:46:20.479Z,68.04
2018-03-06T11:47:20.447Z,67.56
2018-03-06T11:48:20.425Z,67.27
2018-03-06T11:49:20.397Z,67.85
2018-03-06T11:50:20.375Z,68.13
2018-03-06T11:51:20.375Z,67.56
2018-03-06T11:52:20.327Z,67.37
2018-03-06T11:53:20.340Z,67.56
2018-03-06T11:54:20.276Z,67.37
2018-03-06T11:55:20.247Z,67.46
2018-03-06T11:56:20.221Z,67.46
2018-03-06T11:57:20.200Z,67.56
2018-03-06T11:58:20.169Z,67.27
2018-03-06T11:59:20.146Z,68.23
2018-03-06T12:00:20.120Z,68.41
2018-03-06T12:01:20.096Z,67.94
2018-03-06T12:02:20.079Z,68.23
2018-03-06T12:03:20.046Z,68.41
2018-03-06T12:04:20.023Z,68.41
2018-03-06T12:05:20.007Z,68.51
2018-03-06T12:06:19.971Z,68.70
2018-03-06T12:07:19.946Z,68.98
2018-03-06T12:08:19.921Z,68.89
2018-03-06T12:09:19.898Z,68.41
2018-03-06T12:10:19.867Z,68.13
2018-03-06T12:11:19.843Z,68.23
2018-03-06T12:12:19.845Z,68.41
2018-03-06T12:13:19.789Z,67.85
2018-03-06T12:14:19.769Z,67.85
2018-03-06T12:15:19.741Z,67.46
2018-03-06T12:16:19.724Z,67.56
2018-03-06T12:17:19.691Z,67.75
2018-03-06T12:18:19.667Z,67.65
2018-03-06T12:19:19.644Z,68.04
2018-03-06T12:20:19.625Z,67.65
2018-03-06T12:21:19.592Z,68.32
2018-03-06T12:22:19.568Z,68.13
2018-03-06T12:23:19.544Z,67.94
2018-03-06T12:24:19.516Z,68.13
2018-03-06T12:25:19.492Z,68.23
2018-03-06T12:26:19.466Z,68.41
2018-03-06T12:27:19.440Z,68.23
2018-03-06T12:28:19.456Z,67.85
2018-03-06T12:29:19.388Z,68.32
2018-03-06T12:30:19.363Z,68.32
2018-03-06T12:31:19.337Z,68.32
2018-03-06T12:32:19.321Z,68.13
2018-03-06T12:33:19.289Z,68.41
2018-03-06T12:34:19.264Z,68.51
2018-03-06T12:35:19.236Z,68.41
2018-03-06T12:36:19.210Z,68.79
2018-03-06T12:37:19.189Z,68.89
2018-03-06T12:38:19.160Z,68.89
2018-03-06T12:39:19.140Z,68.70
2018-03-06T12:40:19.123Z,69.36
2018-03-06T12:41:19.085Z,69.36
2018-03-06T12:42:19.063Z,69.27
2018-03-06T12:43:19.046Z,69.36
2018-03-06T12:44:19.013Z,68.98
2018-03-06T12:45:18.986Z,69.36
2018-03-06T12:46:18.962Z,69.84
2018-03-06T12:47:18.933Z,69.84
2018-03-06T12:48:18.908Z,69.74
2018-03-06T12:49:18.902Z,70.40
2018-03-06T12:50:18.858Z,70.31
2018-03-06T12:51:18.834Z,70.59
2018-03-06T12:52:18.814Z,70.12
2018-03-06T12:53:18.787Z,70.98
2018-03-06T12:54:18.758Z,71.07
2018-03-06T12:55:18.731Z,71.07
2018-03-06T12:56:18.711Z,70.88
2018-03-06T12:57:18.682Z,70.69
2018-03-06T12:58:18.657Z,70.98
2018-03-06T12:59:18.631Z,70.98
2018-03-06T13:00:18.608Z,71.36
2018-03-06T13:01:18.584Z,71.55
2018-03-06T13:02:18.559Z,71.17
2018-03-06T13:03:18.558Z,70.88
2018-03-06T13:04:18.509Z,71.73
2018-03-06T13:05:18.493Z,71.26
2018-03-06T13:06:18.457Z,71.22
2018-03-06T13:07:18.429Z,71.55
2018-03-06T13:08:18.406Z,71.17
2018-03-06T13:09:18.384Z,71.26
2018-03-06T13:10:18.352Z,71.80
2018-03-06T13:11:18.330Z,71.83
2018-03-06T13:12:18.304Z,72.11
2018-03-06T13:13:18.281Z,71.89
2018-03-06T13:14:18.257Z,71.98
2018-03-06T13:15:18.227Z,72.55
2018-03-06T13:16:18.202Z,72.45
2018-03-06T13:17:18.177Z,73.03
2018-03-06T13:18:18.150Z,73.22
2018-03-06T13:19:18.129Z,73.22
2018-03-06T13:20:41.984Z,73.69
2018-03-06T13:21:18.073Z,74.07
2018-03-06T13:22:18.048Z,73.88
2018-03-06T13:23:18.033Z,74.16
2018-03-06T13:24:18.007Z,73.79
2018-03-06T13:25:17.973Z,74.16
2018-03-06T13:26:17.954Z,74.54
2018-03-06T13:27:17.926Z,74.35
2018-03-06T13:28:17.900Z,74.54
2018-03-06T13:29:17.873Z,75.21
2018-03-06T13:30:17.855Z,75.31
2018-03-06T13:31:17.828Z,74.92
2018-03-06T13:32:17.797Z,75.21
2018-03-06T13:33:17.808Z,75.49
2018-03-06T13:34:17.744Z,75.96
2018-03-06T13:35:17.721Z,75.96
2018-03-06T13:36:17.696Z,75.49
2018-03-06T13:37:17.672Z,76.25
2018-03-06T13:38:17.644Z,76.63
2018-03-06T13:39:17.675Z,76.82
2018-03-06T13:40:17.592Z,76.73
2018-03-06T13:41:17.575Z,77.29
2018-03-06T13:42:17.541Z,77.39
2018-03-06T13:43:17.515Z,77.29
2018-03-06T13:44:17.498Z,77.11
2018-03-06T13:45:17.465Z,77.29
2018-03-06T13:46:17.451Z,77.39
2018-03-06T13:47:17.421Z,77.29
2018-03-06T13:48:17.398Z,77.01
2018-03-06T13:49:17.375Z,77.39
2018-03-06T13:50:17.337Z,77.86
2018-03-06T13:51:17.317Z,77.86
2018-03-06T13:52:17.313Z,78.05
2018-03-06T13:53:17.261Z,78.53
2018-03-06T13:54:17.234Z,78.24
2018-03-06T13:55:17.213Z,78.43
2018-03-06T13:56:17.184Z,78.62
2018-03-06T13:57:17.160Z,78.53
2018-03-06T13:58:17.137Z,78.91
2018-03-06T13:59:17.107Z,79.15
2018-03-06T14:00:17.082Z,78.87
2018-03-06T14:01:17.061Z,79.10
2018-03-06T14:02:17.033Z,79.15
2018-03-06T14:03:17.008Z,78.62
2018-03-06T14:04:16.982Z,79.44
2018-03-06T14:05:16.961Z,79.53
2018-03-06T14:06:16.932Z,79.82
2018-03-06T14:07:16.903Z,79.72
2018-03-06T14:08:16.878Z,79.72
2018-03-06T14:09:16.853Z,79.82
2018-03-06T14:10:16.828Z,80.57
2018-03-06T14:11:16.801Z,80.76
2018-03-06T14:12:16.776Z,80.67
2018-03-06T14:13:16.749Z,80.86
2018-03-06T14:14:16.761Z,80.86
2018-03-06T14:15:16.706Z,80.76
2018-03-06T14:16:16.680Z,81.24
2018-03-06T14:17:16.651Z,80.86
2018-03-06T14:18:16.624Z,81.14
2018-03-06T14:19:16.595Z,80.95
2018-03-06T14:20:16.605Z,80.57
2018-03-06T14:21:16.546Z,80.86
2018-03-06T14:22:16.522Z,80.86
2018-03-06T14:23:16.494Z,81.33
2018-03-06T14:24:16.470Z,81.33
2018-03-06T14:25:16.443Z,81.71
2018-03-06T14:26:16.415Z,81.24
2018-03-06T14:27:16.401Z,81.52
2018-03-06T14:28:16.366Z,81.43
2018-03-06T14:29:16.339Z,81.33
2018-03-06T14:30:16.314Z,81.71
2018-03-06T14:31:16.288Z,81.71
2018-03-06T14:32:16.304Z,81.52
2018-03-06T14:33:16.353Z,81.33
2018-03-06T14:34:16.218Z,81.62
2018-03-06T14:35:16.185Z,81.33
2018-03-06T14:36:16.160Z,82.09
2018-03-06T14:37:16.140Z,81.90
2018-03-06T14:38:16.110Z,82.09
2018-03-06T14:39:16.082Z,82.28
2018-03-06T14:40:16.061Z,81.99
2018-03-06T14:41:16.037Z,82.09
2018-03-06T14:42:16.010Z,82.28
2018-03-06T14:43:15.985Z,82.09
2018-03-06T14:44:15.964Z,82.66